Portland Cashmore, Victoria

3:47 PM AEST on July 30, 2016 (GMT +1000)
Mount Gambier | | Change Station

Elev 210 ft 37.75 °S, 140.79 °E | Updated 36 minutes ago

Mostly Cloudy
Mostly Cloudy
55 °F
Feels Like 55 °F
N
21
Wind Variable Wind from North
Gusts 32 mph

Today
High -- | Low -- °F
--% Chance of Precip.
Yesterday
High -- | Low -- °F
Precip. -- in
Pressure 29.83 in
Visibility 6.2 miles
Clouds Mostly Cloudy 10000 ft
Dew Point 46 °F
Humidity 72%
Rainfall 0.00 in
Snow Depth Not available.
7:37 AM 5:44 PM
Waning Crescent, 16% visible
SPECI YMTG 300511Z AUTO 36018G28KT 9999 // BKN100 13/08 Q1010
Pressure 29.83 in
Visibility 6.2 miles
Clouds Mostly Cloudy 10000 ft
Dew Point 46 °F
Humidity 72%
Rainfall 0.00 in
Snow Depth Not available.
7:37 AM 5:44 PM
Waning Crescent, 16% visible
SPECI YMTG 300511Z AUTO 36018G28KT 9999 // BKN100 13/08 Q1010

10-Day Weather Forecast

Almanac

Astronomy

Jul. 30, 2016 Rise Set
Actual Time
Civil Twilight
Nautical Twilight
Astronomical Twilight
Moon
Length of Visible Light
Length of Day
Tomorrow will be .
, % of the Moon is Illuminated

Today's Extremes

Country Highs Country Lows

Community

WunderPhotos

Upload Photos

1,928,508 photos uploaded!

WunderBlog® & News

Nearby

Air Quality

  Air Quality AQ Index Pollutant
Not available.

Snow Depth

Station Depth Elevation

Earthquake Activity

City Distance Mag. Time & Date
Minimum magnitude displayed is 2.5.

Coastal Water Temperatures

Place Temperature

Stations

Nearby Weather Stations

Station Location Temp. Windchill Dew Point Humidity Wind Precip. Elev Updated Type